METAR Data
IDs: Format: Raw Decoded Include TAF

Data at: 0058 UTC 12 May 2021

KOXI 120039Z AUTO 36008KT 10SM CLR 07/M01 A3035 RMK AO1
KOXI 120020Z AUTO 35010KT 10SM CLR 08/M01 A3035 RMK AO1
KOXI 112359Z AUTO 35010KT 10SM CLR 08/M02 A3034 RMK AO1
KOXI 112339Z AUTO 36011KT 10SM CLR 08/M02 A3034 RMK AO1
KOXI 112320Z AUTO 36012KT 10SM CLR 09/M03 A3033 RMK AO1
KOXI 112259Z AUTO 35014G19KT 10SM CLR 09/M03 A3033 RMK AO1
KOXI 112239Z AUTO 36014KT 10SM CLR 10/M03 A3033 RMK AO1
KOXI 112220Z AUTO 35015KT 10SM CLR 10/M02 A3032 RMK AO1
KOXI 112200Z AUTO 34017KT 10SM CLR 11/M02 A3032 RMK AO1
KOXI 112140Z AUTO 34015G20KT 10SM CLR 11/M02 A3032 RMK AO1
KOXI 112120Z AUTO 01017KT 10SM CLR 11/M02 A3032 RMK AO1
KOXI 112059Z AUTO 34016G24KT 10SM CLR 11/M02 A3032 RMK AO1
KOXI 112039Z AUTO 36012G22KT 10SM CLR 11/M01 A3032 RMK AO1
KOXI 112020Z AUTO 36014G19KT 10SM CLR 11/M01 A3033 RMK AO1
KOXI 112000Z AUTO 36013G19KT 10SM SCT050 11/M01 A3034 RMK AO1
KOXI 111941Z AUTO 34013G21KT 10SM CLR 11/M01 A3033 RMK AO1
KOXI 111921Z AUTO 33015G20KT 10SM CLR 11/00 A3033 RMK AO1
KOXI 111902Z AUTO 35014G19KT 10SM SCT048 11/M01 A3033 RMK AO1
KOXI 111820Z AUTO 36015G19KT 10SM BKN048 12/01 A3034 RMK AO1
KOXI 111759Z AUTO 35015G22KT 10SM SCT048 BKN055 11/01 A3034 RMK AO1
KOXI 111740Z AUTO 36009G16KT 10SM SCT050 12/00 A3035 RMK AO1
KOXI 111719Z AUTO 36010G18KT 10SM SCT050 SCT055 11/00 A3035 RMK AO1
KOXI 111659Z AUTO 35009G18KT 10SM BKN050 10/M01 A3035 RMK AO1
KOXI 111639Z AUTO 34012G17KT 10SM SCT050 11/00 A3035 RMK AO1
KOXI 111620Z AUTO 36011G17KT 10SM SCT048 BKN060 11/00 A3034 RMK AO1
KOXI 111559Z AUTO 34006KT 10SM SCT043 SCT050 10/01 A3034 RMK AO1
KOXI 111540Z AUTO 36006G14KT 10SM SCT046 SCT050 11/01 A3035 RMK AO1
KOXI 111520Z AUTO 34010G14KT 10SM SCT040 10/01 A3034 RMK AO1
KOXI 111500Z AUTO 03005KT 10SM CLR 09/01 A3034 RMK AO1
KOXI 111440Z AUTO 03008G14KT 10SM CLR 09/02 A3033 RMK AO1
KOXI 111419Z AUTO 02010KT 10SM CLR 09/02 A3033 RMK AO1
KOXI 111359Z AUTO 04008KT 10SM CLR 08/02 A3033 RMK AO1
KOXI 111339Z AUTO 02009KT 10SM CLR 08/02 A3033 RMK AO1
KOXI 111319Z AUTO 02007KT 10SM CLR 07/02 A3032 RMK AO1
KOXI 111259Z AUTO 04010KT 10SM CLR 07/01 A3031 RMK AO1
KOXI 111240Z AUTO 04008KT 10SM CLR 06/01 A3031 RMK AO1
KOXI 111219Z AUTO 05005KT 10SM CLR 06/02 A3030 RMK AO1
KOXI 111159Z AUTO 02004KT 10SM CLR 04/03 A3030 RMK AO1
KOXI 111140Z AUTO 02004KT 10SM CLR 03/02 A3030 RMK AO1
KOXI 111119Z AUTO 02003KT 10SM CLR 03/01 A3029 RMK AO1
KOXI 111059Z AUTO 02003KT 10SM CLR 03/01 A3028 RMK AO1
KOXI 111039Z AUTO 02003KT 10SM CLR 02/01 A3027 RMK AO1
KOXI 111020Z AUTO 01005KT 10SM SCT110 02/01 A3027 RMK AO1
KOXI 111001Z AUTO 01005KT 10SM BKN110 03/01 A3026 RMK AO1
KOXI 110942Z AUTO 01005KT 10SM OVC100 03/02 A3025 RMK AO1
KOXI 110920Z AUTO 01005KT 10SM OVC110 04/02 A3025 RMK AO1
KOXI 110900Z AUTO 36005KT 10SM BKN090 OVC110 03/02 A3024 RMK AO1
KOXI 110840Z AUTO 01004KT 10SM BKN090 OVC120 03/02 A3023 RMK AO1
KOXI 110820Z AUTO 36004KT 10SM SCT090 OVC120 03/02 A3023 RMK AO1
KOXI 110800Z AUTO 36003KT 10SM SCT090 BKN120 03/02 A3023 RMK AO1
KOXI 110740Z AUTO 36003KT 10SM BKN090 BKN120 03/02 A3023 RMK AO1
KOXI 110720Z AUTO 02004KT 10SM SCT090 03/01 A3022 RMK AO1
KOXI 110700Z AUTO 02005KT 10SM SCT100 04/01 A3022 RMK AO1
KOXI 110640Z AUTO 36004KT 10SM CLR 04/01 A3022 RMK AO1
KOXI 110620Z AUTO 00000KT 10SM CLR 04/01 A3022 RMK AO1
KOXI 110600Z AUTO 00000KT 10SM CLR 04/02 A3022 RMK AO1
KOXI 110540Z AUTO 00000KT 10SM SCT090 SCT120 04/01 A3022 RMK AO1
KOXI 110520Z AUTO 36006KT 10SM SCT090 SCT110 04/02 A3021 RMK AO1
KOXI 110500Z AUTO 36004KT 10SM SCT090 SCT110 04/02 A3022 RMK AO1
KOXI 110440Z AUTO 01004KT 10SM SCT090 SCT110 04/02 A3022 RMK AO1
KOXI 110422Z AUTO 36004KT 10SM CLR 04/02 A3022 RMK AO1
KOXI 110400Z AUTO 01006KT 10SM SCT110 04/01 A3022 RMK AO1
KOXI 110340Z AUTO 01005KT 10SM SCT100 SCT120 06/01 A3021 RMK AO1
KOXI 110320Z AUTO 01003KT 10SM BKN090 BKN120 06/01 A3022 RMK AO1
KOXI 110300Z AUTO 01004KT 10SM BKN090 BKN110 06/01 A3021 RMK AO1
KOXI 110240Z AUTO 01005KT 10SM OVC090 06/01 A3020 RMK AO1
KOXI 110220Z AUTO 00000KT 10SM OVC090 07/M01 A3019 RMK AO1
KOXI 110200Z AUTO 03003KT 10SM BKN080 OVC100 07/00 A3019 RMK AO1
KOXI 110140Z AUTO 01004KT 10SM BKN080 BKN090 OVC110 07/02 A3019 RMK AO1
KOXI 110120Z AUTO 01007KT 10SM OVC080 07/01 A3019 RMK AO1
KOXI 110100Z AUTO 36009KT 10SM OVC080 08/01 A3018 RMK AO1
KOXI 110040Z AUTO 36011KT 10SM BKN080 BKN090 BKN120 08/02 A3017 RMK AO1
KOXI 110020Z AUTO 36013KT 10SM BKN080 08/02 A3016 RMK AO1
KOXI 110000Z AUTO 01009KT 10SM CLR 09/02 A3015 RMK AO1
KOXI 102340Z AUTO 36010KT 10SM CLR 09/02 A3015 RMK AO1
KOXI 102320Z AUTO 36014KT 10SM CLR 09/02 A3014 RMK AO1
KOXI 102300Z AUTO 01012KT 10SM CLR 11/03 A3014 RMK AO1
KOXI 102240Z AUTO 01010KT 10SM SCT110 12/04 A3013 RMK AO1
KOXI 102220Z AUTO 35012G18KT 10SM BKN110 12/04 A3013 RMK AO1
KOXI 102200Z AUTO 01014KT 10SM SCT110 13/05 A3013 RMK AO1
KOXI 102140Z AUTO 01013KT 10SM SCT039 SCT100 13/06 A3012 RMK AO1
KOXI 102120Z AUTO 36012G15KT 10SM BKN039 BKN047 BKN060 14/05 A3011 RMK AO1
KOXI 102100Z AUTO 36010KT 10SM SCT039 SCT045 BKN060 14/06 A3012 RMK AO1
KOXI 102042Z AUTO 31008KT 10SM SCT039 SCT046 BKN060 14/06 A3012 RMK AO1
KOXI 102019Z AUTO 28005KT 10SM SCT043 SCT050 BKN085 14/05 A3011 RMK AO1
KOXI 102000Z AUTO 29007KT 10SM BKN046 14/06 A3012 RMK AO1
KOXI 101940Z AUTO 26007KT 10SM SCT046 BKN075 14/04 A3012 RMK AO1
KOXI 101920Z AUTO 25010KT 10SM BKN046 13/04 A3012 RMK AO1
KOXI 101900Z AUTO 21004KT 10SM SCT048 SCT055 13/03 A3012 RMK AO1
KOXI 101839Z AUTO 36003KT 10SM BKN050 13/03 A3012 RMK AO1
KOXI 101819Z AUTO 30004KT 10SM OVC050 13/02 A3013 RMK AO1
KOXI 101801Z AUTO 32003KT 10SM BKN050 BKN080 BKN095 12/02 A3013 RMK AO1
KOXI 101739Z AUTO 01004KT 10SM SCT055 BKN090 12/02 A3014 RMK AO1
KOXI 101720Z AUTO 00000KT 10SM BKN055 BKN090 12/01 A3014 RMK AO1
KOXI 101700Z AUTO 00000KT 10SM BKN060 BKN090 11/01 A3015 RMK AO1
KOXI 101639Z AUTO 00000KT 10SM BKN070 OVC090 10/00 A3015 RMK AO1
KOXI 101620Z AUTO 04003KT 10SM SCT070 OVC080 11/01 A3014 RMK AO1
KOXI 101602Z AUTO 00000KT 10SM BKN075 OVC090 10/02 A3014 RMK AO1
KOXI 101542Z AUTO 36004KT 10SM BKN070 OVC075 10/03 A3014 RMK AO1
KOXI 101519Z AUTO 03003KT 10SM SCT065 BKN090 OVC110 09/03 A3014 RMK AO1
KOXI 101500Z AUTO 01006KT 10SM SCT090 OVC110 10/04 A3013 RMK AO1
KOXI 101439Z AUTO 01005KT 10SM BKN100 BKN120 09/04 A3013 RMK AO1
KOXI 101421Z AUTO 36004KT 10SM SCT120 09/04 A3012 RMK AO1
KOXI 101359Z AUTO 34005KT 10SM CLR 09/04 A3012 RMK AO1
KOXI 101339Z AUTO 34004KT 10SM SCT120 08/04 A3012 RMK AO1
KOXI 101319Z AUTO 33004KT 10SM CLR 07/04 A3012 RMK AO1
KOXI 101259Z AUTO 34003KT 10SM CLR 06/04 A3012 RMK AO1